sensor_id;sensor_type;location;lat;lon;timestamp;pressure;altitude;pressure_sealevel;temperature;humidity
65800;BME280;52544;48.116;11.660;2024-02-23T00:01:31;93761.63;;;6.93;100.00
65800;BME280;52544;48.116;11.660;2024-02-23T00:03:56;93756.78;;;6.80;100.00
65800;BME280;52544;48.116;11.660;2024-02-23T00:06:21;93768.81;;;6.91;100.00
65800;BME280;52544;48.116;11.660;2024-02-23T00:08:53;93768.25;;;6.79;100.00
65800;BME280;52544;48.116;11.660;2024-02-23T00:11:20;93770.81;;;6.89;100.00
65800;BME280;52544;48.116;11.660;2024-02-23T00:13:45;93772.09;;;6.85;100.00
65800;BME280;52544;48.116;11.660;2024-02-23T00:16:11;93762.50;;;6.75;100.00
65800;BME280;52544;48.116;11.660;2024-02-23T00:18:36;93750.22;;;6.66;100.00
65800;BME280;52544;48.116;11.660;2024-02-23T00:21:02;93763.44;;;6.74;100.00
65800;BME280;52544;48.116;11.660;2024-02-23T00:23:27;93766.69;;;6.68;100.00
65800;BME280;52544;48.116;11.660;2024-02-23T00:25:54;93768.13;;;6.63;100.00
65800;BME280;52544;48.116;11.660;2024-02-23T00:28:19;93783.38;;;6.59;100.00
65800;BME280;52544;48.116;11.660;2024-02-23T00:30:44;93775.47;;;6.59;100.00
65800;BME280;52544;48.116;11.660;2024-02-23T00:33:10;93779.75;;;6.60;100.00
65800;BME280;52544;48.116;11.660;2024-02-23T00:35:35;93768.13;;;6.63;100.00
65800;BME280;52544;48.116;11.660;2024-02-23T00:38:01;93774.50;;;6.60;100.00
65800;BME280;52544;48.116;11.660;2024-02-23T00:40:26;93775.41;;;6.51;100.00
65800;BME280;52544;48.116;11.660;2024-02-23T00:42:52;93761.75;;;6.47;100.00
65800;BME280;52544;48.116;11.660;2024-02-23T00:45:17;93753.31;;;6.44;100.00
65800;BME280;52544;48.116;11.660;2024-02-23T00:47:43;93773.91;;;6.48;100.00
65800;BME280;52544;48.116;11.660;2024-02-23T00:50:09;93771.72;;;6.44;100.00
65800;BME280;52544;48.116;11.660;2024-02-23T00:52:34;93786.38;;;6.46;100.00
65800;BME280;52544;48.116;11.660;2024-02-23T00:55:00;93792.75;;;6.44;100.00
65800;BME280;52544;48.116;11.660;2024-02-23T00:57:25;93787.84;;;6.49;100.00
65800;BME280;52544;48.116;11.660;2024-02-23T00:59:58;93784.84;;;6.44;100.00
65800;BME280;52544;48.116;11.660;2024-02-23T01:02:23;93786.13;;;6.40;100.00
65800;BME280;52544;48.116;11.660;2024-02-23T01:04:48;93793.94;;;6.32;100.00
65800;BME280;52544;48.116;11.660;2024-02-23T01:07:14;93800.09;;;6.40;100.00
65800;BME280;52544;48.116;11.660;2024-02-23T01:09:39;93801.69;;;6.51;100.00
65800;BME280;52544;48.116;11.660;2024-02-23T01:12:05;93795.16;;;6.55;100.00
65800;BME280;52544;48.116;11.660;2024-02-23T01:14:30;93804.69;;;6.56;100.00
65800;BME280;52544;48.116;11.660;2024-02-23T01:16:56;93810.97;;;6.45;100.00
65800;BME280;52544;48.116;11.660;2024-02-23T01:19:21;93807.84;;;6.42;100.00
65800;BME280;52544;48.116;11.660;2024-02-23T01:21:47;93811.59;;;6.39;100.00
65800;BME280;52544;48.116;11.660;2024-02-23T01:24:14;93807.53;;;6.45;100.00
65800;BME280;52544;48.116;11.660;2024-02-23T01:26:39;93811.59;;;6.39;100.00
65800;BME280;52544;48.116;11.660;2024-02-23T01:29:06;93830.72;;;6.32;100.00
65800;BME280;52544;48.116;11.660;2024-02-23T01:31:31;93826.97;;;6.34;100.00
65800;BME280;52544;48.116;11.660;2024-02-23T01:33:57;93821.72;;;6.34;100.00
65800;BME280;52544;48.116;11.660;2024-02-23T01:36:22;93821.81;;;6.42;100.00
65800;BME280;52544;48.116;11.660;2024-02-23T01:38:47;93845.06;;;6.37;100.00
65800;BME280;52544;48.116;11.660;2024-02-23T01:41:13;93846.47;;;6.32;100.00
65800;BME280;52544;48.116;11.660;2024-02-23T01:43:38;93837.59;;;6.33;100.00
65800;BME280;52544;48.116;11.660;2024-02-23T01:46:04;93832.34;;;6.33;100.00
65800;BME280;52544;48.116;11.660;2024-02-23T01:48:31;93848.00;;;6.34;100.00
65800;BME280;52544;48.116;11.660;2024-02-23T01:50:57;93821.09;;;6.40;100.00
65800;BME280;52544;48.116;11.660;2024-02-23T01:53:22;93820.47;;;6.29;100.00
65800;BME280;52544;48.116;11.660;2024-02-23T01:55:50;93825.53;;;6.22;100.00
65800;BME280;52544;48.116;11.660;2024-02-23T01:58:17;93821.38;;;6.19;100.00
65800;BME280;52544;48.116;11.660;2024-02-23T02:00:43;93834.50;;;6.19;100.00
65800;BME280;52544;48.116;11.660;2024-02-23T02:03:08;93827.44;;;6.20;100.00
65800;BME280;52544;48.116;11.660;2024-02-23T02:05:36;93835.28;;;6.30;100.00
65800;BME280;52544;48.116;11.660;2024-02-23T02:08:01;93826.94;;;6.16;100.00
65800;BME280;52544;48.116;11.660;2024-02-23T02:10:27;93826.16;;;6.06;100.00
65800;BME280;52544;48.116;11.660;2024-02-23T02:12:52;93818.97;;;6.08;100.00
65800;BME280;52544;48.116;11.660;2024-02-23T02:15:18;93817.00;;;6.10;100.00
65800;BME280;52544;48.116;11.660;2024-02-23T02:17:43;93821.44;;;6.10;100.00
65800;BME280;52544;48.116;11.660;2024-02-23T02:20:13;93829.16;;;6.11;100.00
65800;BME280;52544;48.116;11.660;2024-02-23T02:22:39;93833.84;;;6.17;100.00
65800;BME280;52544;48.116;11.660;2024-02-23T02:25:05;93836.66;;;6.06;100.00
65800;BME280;52544;48.116;11.660;2024-02-23T02:27:31;93840.53;;;6.02;100.00
65800;BME280;52544;48.116;11.660;2024-02-23T02:29:56;93852.03;;;6.01;100.00
65800;BME280;52544;48.116;11.660;2024-02-23T02:32:22;93847.88;;;5.98;100.00
65800;BME280;52544;48.116;11.660;2024-02-23T02:34:48;93860.72;;;6.01;100.00
65800;BME280;52544;48.116;11.660;2024-02-23T02:37:13;93859.63;;;6.04;100.00
65800;BME280;52544;48.116;11.660;2024-02-23T02:39:39;93868.16;;;6.06;100.00
65800;BME280;52544;48.116;11.660;2024-02-23T02:42:04;93863.34;;;6.01;100.00
65800;BME280;52544;48.116;11.660;2024-02-23T02:44:30;93857.94;;;6.03;100.00
65800;BME280;52544;48.116;11.660;2024-02-23T02:47:00;93864.19;;;6.02;100.00
65800;BME280;52544;48.116;11.660;2024-02-23T02:49:26;93868.31;;;6.05;100.00
65800;BME280;52544;48.116;11.660;2024-02-23T02:51:51;93874.78;;;6.10;100.00
65800;BME280;52544;48.116;11.660;2024-02-23T02:54:16;93880.09;;;6.00;100.00
65800;BME280;52544;48.116;11.660;2024-02-23T02:56:43;93881.63;;;5.93;100.00
65800;BME280;52544;48.116;11.660;2024-02-23T02:59:09;93877.47;;;5.91;100.00
65800;BME280;52544;48.116;11.660;2024-02-23T03:01:35;93873.50;;;5.87;100.00
65800;BME280;52544;48.116;11.660;2024-02-23T03:04:01;93868.34;;;5.85;100.00
65800;BME280;52544;48.116;11.660;2024-02-23T03:06:26;93871.94;;;5.94;100.00
65800;BME280;52544;48.116;11.660;2024-02-23T03:08:52;93867.94;;;5.90;100.00
65800;BME280;52544;48.116;11.660;2024-02-23T03:11:17;93875.13;;;5.88;100.00
65800;BME280;52544;48.116;11.660;2024-02-23T03:13:42;93873.75;;;5.84;100.00
65800;BME280;52544;48.116;11.660;2024-02-23T03:16:17;93864.25;;;5.83;100.00
65800;BME280;52544;48.116;11.660;2024-02-23T03:18:43;93865.50;;;5.79;100.00
65800;BME280;52544;48.116;11.660;2024-02-23T03:21:08;93868.00;;;5.70;100.00
65800;BME280;52544;48.116;11.660;2024-02-23T03:23:35;93870.47;;;5.72;100.00
65800;BME280;52544;48.116;11.660;2024-02-23T03:26:01;93868.69;;;5.72;100.00
65800;BME280;52544;48.116;11.660;2024-02-23T03:28:26;93869.66;;;5.71;100.00
65800;BME280;52544;48.116;11.660;2024-02-23T03:30:52;93873.53;;;5.67;100.00
65800;BME280;52544;48.116;11.660;2024-02-23T03:33:17;93875.78;;;5.62;100.00
65800;BME280;52544;48.116;11.660;2024-02-23T03:35:43;93880.03;;;5.63;100.00
65800;BME280;52544;48.116;11.660;2024-02-23T03:38:08;93872.88;;;5.65;100.00
65800;BME280;52544;48.116;11.660;2024-02-23T03:40:33;93859.19;;;5.62;100.00
65800;BME280;52544;48.116;11.660;2024-02-23T03:43:01;93873.44;;;5.59;100.00
65800;BME280;52544;48.116;11.660;2024-02-23T03:45:27;93858.94;;;5.55;100.00
65800;BME280;52544;48.116;11.660;2024-02-23T03:47:53;93861.28;;;5.58;100.00
65800;BME280;52544;48.116;11.660;2024-02-23T03:50:18;93864.72;;;5.59;100.00
65800;BME280;52544;48.116;11.660;2024-02-23T03:52:43;93867.91;;;5.62;100.00
65800;BME280;52544;48.116;11.660;2024-02-23T03:55:09;93861.28;;;5.58;100.00
65800;BME280;52544;48.116;11.660;2024-02-23T03:57:34;93868.44;;;5.56;100.00
65800;BME280;52544;48.116;11.660;2024-02-23T04:00:00;93878.56;;;5.61;100.00
65800;BME280;52544;48.116;11.660;2024-02-23T04:02:25;93878.00;;;5.57;100.00
65800;BME280;52544;48.116;11.660;2024-02-23T04:04:51;93893.03;;;5.55;100.00
65800;BME280;52544;48.116;11.660;2024-02-23T04:07:16;93884.50;;;5.53;100.00
65800;BME280;52544;48.116;11.660;2024-02-23T04:09:42;93890.84;;;5.50;100.00
65800;BME280;52544;48.116;11.660;2024-02-23T04:12:07;93892.25;;;5.45;100.00
65800;BME280;52544;48.116;11.660;2024-02-23T04:14:33;93903.72;;;5.44;100.00
65800;BME280;52544;48.116;11.660;2024-02-23T04:17:04;93898.75;;;5.41;100.00
65800;BME280;52544;48.116;11.660;2024-02-23T04:19:29;93895.16;;;5.42;100.00
65800;BME280;52544;48.116;11.660;2024-02-23T04:21:55;93898.16;;;5.47;100.00
65800;BME280;52544;48.116;11.660;2024-02-23T04:24:20;93902.03;;;5.43;100.00
65800;BME280;52544;48.116;11.660;2024-02-23T04:26:46;93889.63;;;5.45;100.00
65800;BME280;52544;48.116;11.660;2024-02-23T04:29:11;93890.88;;;5.41;100.00
65800;BME280;52544;48.116;11.660;2024-02-23T04:31:37;93897.09;;;5.40;100.00
65800;BME280;52544;48.116;11.660;2024-02-23T04:34:03;93899.00;;;5.38;100.00
65800;BME280;52544;48.116;11.660;2024-02-23T04:36:28;93891.41;;;5.35;100.00
65800;BME280;52544;48.116;11.660;2024-02-23T04:38:54;93899.59;;;5.32;100.00
65800;BME280;52544;48.116;11.660;2024-02-23T04:41:20;93907.72;;;5.29;100.00
65800;BME280;52544;48.116;11.660;2024-02-23T04:43:47;93905.53;;;5.24;100.00
65800;BME280;52544;48.116;11.660;2024-02-23T04:46:12;93912.03;;;5.20;100.00
65800;BME280;52544;48.116;11.660;2024-02-23T04:48:38;93898.50;;;5.24;100.00
65800;BME280;52544;48.116;11.660;2024-02-23T04:51:04;93898.63;;;5.13;100.00
65800;BME280;52544;48.116;11.660;2024-02-23T04:53:29;93913.81;;;5.00;100.00
65800;BME280;52544;48.116;11.660;2024-02-23T04:55:55;93905.94;;;5.00;100.00
65800;BME280;52544;48.116;11.660;2024-02-23T04:58:20;93907.06;;;4.97;100.00
65800;BME280;52544;48.116;11.660;2024-02-23T05:00:46;93902.91;;;4.95;100.00
65800;BME280;52544;48.116;11.660;2024-02-23T05:03:11;93904.41;;;4.88;100.00
65800;BME280;52544;48.116;11.660;2024-02-23T05:05:38;93906.47;;;4.84;100.00
65800;BME280;52544;48.116;11.660;2024-02-23T05:08:03;93914.22;;;4.86;100.00
65800;BME280;52544;48.116;11.660;2024-02-23T05:10:29;93923.31;;;4.82;100.00
65800;BME280;52544;48.116;11.660;2024-02-23T05:12:54;93920.00;;;4.80;100.00
65800;BME280;52544;48.116;11.660;2024-02-23T05:15:20;93908.16;;;4.85;100.00
65800;BME280;52544;48.116;11.660;2024-02-23T05:17:46;93897.13;;;4.82;100.00
65800;BME280;52544;48.116;11.660;2024-02-23T05:20:12;93912.84;;;4.82;100.00
65800;BME280;52544;48.116;11.660;2024-02-23T05:22:38;93905.81;;;4.92;100.00
65800;BME280;52544;48.116;11.660;2024-02-23T05:25:04;93908.13;;;4.75;100.00
65800;BME280;52544;48.116;11.660;2024-02-23T05:27:30;93904.00;;;4.73;100.00
65800;BME280;52544;48.116;11.660;2024-02-23T05:29:56;93904.84;;;4.73;100.00
65800;BME280;52544;48.116;11.660;2024-02-23T05:32:21;93920.28;;;4.76;100.00
65800;BME280;52544;48.116;11.660;2024-02-23T05:34:46;93916.28;;;4.72;100.00
65800;BME280;52544;48.116;11.660;2024-02-23T05:37:17;93908.44;;;4.72;100.00
65800;BME280;52544;48.116;11.660;2024-02-23T05:39:42;93915.31;;;4.83;100.00
65800;BME280;52544;48.116;11.660;2024-02-23T05:42:08;93921.13;;;4.87;100.00
65800;BME280;52544;48.116;11.660;2024-02-23T05:44:33;93915.06;;;4.86;100.00
65800;BME280;52544;48.116;11.660;2024-02-23T05:46:58;93921.53;;;4.92;100.00
65800;BME280;52544;48.116;11.660;2024-02-23T05:49:24;93920.28;;;4.86;100.00
65800;BME280;52544;48.116;11.660;2024-02-23T05:51:49;93918.34;;;4.79;100.00
65800;BME280;52544;48.116;11.660;2024-02-23T05:54:15;93932.84;;;4.83;100.00
65800;BME280;52544;48.116;11.660;2024-02-23T05:56:40;93930.78;;;4.86;100.00
65800;BME280;52544;48.116;11.660;2024-02-23T05:59:05;93931.75;;;4.85;100.00
65800;BME280;52544;48.116;11.660;2024-02-23T06:01:31;93934.06;;;4.88;100.00
65800;BME280;52544;48.116;11.660;2024-02-23T06:03:57;93927.19;;;4.87;100.00
65800;BME280;52544;48.116;11.660;2024-02-23T06:06:22;93940.44;;;4.86;100.00
65800;BME280;52544;48.116;11.660;2024-02-23T06:08:48;93941.94;;;4.88;100.00
65800;BME280;52544;48.116;11.660;2024-02-23T06:11:15;93939.63;;;4.95;100.00
65800;BME280;52544;48.116;11.660;2024-02-23T06:13:40;93943.06;;;4.86;100.00
65800;BME280;52544;48.116;11.660;2024-02-23T06:16:09;93940.84;;;4.91;100.00
65800;BME280;52544;48.116;11.660;2024-02-23T06:18:35;93948.16;;;4.97;100.00
65800;BME280;52544;48.116;11.660;2024-02-23T06:21:01;93953.41;;;4.97;100.00
65800;BME280;52544;48.116;11.660;2024-02-23T06:23:26;93950.50;;;4.90;100.00
65800;BME280;52544;48.116;11.660;2024-02-23T06:25:51;93962.63;;;4.82;100.00
65800;BME280;52544;48.116;11.660;2024-02-23T06:28:17;93968.28;;;4.87;100.00
65800;BME280;52544;48.116;11.660;2024-02-23T06:30:42;93967.63;;;4.85;100.00
65800;BME280;52544;48.116;11.660;2024-02-23T06:33:08;93977.13;;;4.86;100.00
65800;BME280;52544;48.116;11.660;2024-02-23T06:35:35;93974.25;;;4.89;100.00
65800;BME280;52544;48.116;11.660;2024-02-23T06:38:01;93974.50;;;4.86;100.00
65800;BME280;52544;48.116;11.660;2024-02-23T06:40:26;93983.22;;;4.96;100.00
65800;BME280;52544;48.116;11.660;2024-02-23T06:42:51;93977.56;;;4.91;100.00
65800;BME280;52544;48.116;11.660;2024-02-23T06:45:17;93968.28;;;4.87;100.00
65800;BME280;52544;48.116;11.660;2024-02-23T06:47:44;93968.56;;;4.84;100.00
65800;BME280;52544;48.116;11.660;2024-02-23T06:50:10;93966.25;;;4.90;100.00
65800;BME280;52544;48.116;11.660;2024-02-23T06:52:35;93964.72;;;4.88;100.00
65800;BME280;52544;48.116;11.660;2024-02-23T06:55:02;93967.16;;;4.80;100.00
65800;BME280;52544;48.116;11.660;2024-02-23T06:57:28;93963.31;;;4.84;100.00
65800;BME280;52544;48.116;11.660;2024-02-23T06:59:53;93962.53;;;4.93;100.00
65800;BME280;52544;48.116;11.660;2024-02-23T07:02:18;93965.00;;;4.94;100.00
65800;BME280;52544;48.116;11.660;2024-02-23T07:04:44;93974.66;;;4.94;100.00
65800;BME280;52544;48.116;11.660;2024-02-23T07:07:09;93974.09;;;4.90;100.00
65800;BME280;52544;48.116;11.660;2024-02-23T07:09:36;93982.13;;;5.08;100.00
65800;BME280;52544;48.116;11.660;2024-02-23T07:12:02;93981.44;;;5.06;100.00
65800;BME280;52544;48.116;11.660;2024-02-23T07:14:28;93973.56;;;5.06;100.00
65800;BME280;52544;48.116;11.660;2024-02-23T07:16:53;93974.66;;;5.04;100.00
65800;BME280;52544;48.116;11.660;2024-02-23T07:19:19;93984.31;;;4.93;100.00
65800;BME280;52544;48.116;11.660;2024-02-23T07:21:46;93991.78;;;4.98;100.00
65800;BME280;52544;48.116;11.660;2024-02-23T07:24:11;93996.06;;;4.99;100.00
65800;BME280;52544;48.116;11.660;2024-02-23T07:26:37;94000.59;;;4.97;100.00
65800;BME280;52544;48.116;11.660;2024-02-23T07:29:02;94001.13;;;4.91;100.00
65800;BME280;52544;48.116;11.660;2024-02-23T07:31:28;94000.31;;;5.00;100.00
65800;BME280;52544;48.116;11.660;2024-02-23T07:33:53;94005.31;;;5.03;100.00
65800;BME280;52544;48.116;11.660;2024-02-23T07:36:18;94009.47;;;5.06;100.00
65800;BME280;52544;48.116;11.660;2024-02-23T07:38:44;94013.41;;;4.90;100.00
65800;BME280;52544;48.116;11.660;2024-02-23T07:41:10;94018.34;;;4.84;100.00
65800;BME280;52544;48.116;11.660;2024-02-23T07:43:36;94017.84;;;4.99;100.00
65800;BME280;52544;48.116;11.660;2024-02-23T07:46:01;94017.56;;;4.93;100.00
65800;BME280;52544;48.116;11.660;2024-02-23T07:48:27;94012.47;;;5.01;100.00
65800;BME280;52544;48.116;11.660;2024-02-23T07:50:53;94000.88;;;4.94;100.00
65800;BME280;52544;48.116;11.660;2024-02-23T07:53:18;94001.41;;;4.88;100.00
65800;BME280;52544;48.116;11.660;2024-02-23T07:55:44;94008.59;;;4.86;100.00
65800;BME280;52544;48.116;11.660;2024-02-23T07:58:09;94009.56;;;4.85;100.00
65800;BME280;52544;48.116;11.660;2024-02-23T08:00:34;94007.88;;;4.84;100.00
65800;BME280;52544;48.116;11.660;2024-02-23T08:03:03;93997.84;;;4.89;100.00
65800;BME280;52544;48.116;11.660;2024-02-23T08:05:28;93995.34;;;4.97;100.00
65800;BME280;52544;48.116;11.660;2024-02-23T08:07:54;93988.59;;;4.94;100.00
65800;BME280;52544;48.116;11.660;2024-02-23T08:10:19;93982.25;;;5.07;100.00
65800;BME280;52544;48.116;11.660;2024-02-23T08:12:46;93988.75;;;5.12;100.00
65800;BME280;52544;48.116;11.660;2024-02-23T08:15:12;93979.38;;;5.19;100.00
65800;BME280;52544;48.116;11.660;2024-02-23T08:17:37;93975.63;;;5.22;100.00
65800;BME280;52544;48.116;11.660;2024-02-23T08:20:03;93973.88;;;5.22;100.00
65800;BME280;52544;48.116;11.660;2024-02-23T08:22:29;93990.28;;;5.24;100.00
65800;BME280;52544;48.116;11.660;2024-02-23T08:24:54;93991.09;;;5.25;100.00
65800;BME280;52544;48.116;11.660;2024-02-23T08:27:20;93973.16;;;5.30;100.00
65800;BME280;52544;48.116;11.660;2024-02-23T08:29:45;93961.72;;;5.31;100.00
65800;BME280;52544;48.116;11.660;2024-02-23T08:32:11;93978.69;;;5.46;100.00
65800;BME280;52544;48.116;11.660;2024-02-23T08:34:36;93980.75;;;5.43;100.00
65800;BME280;52544;48.116;11.660;2024-02-23T08:37:01;93977.72;;;5.38;100.00
65800;BME280;52544;48.116;11.660;2024-02-23T08:39:27;93975.94;;;5.48;100.00
65800;BME280;52544;48.116;11.660;2024-02-23T08:41:53;93967.50;;;5.44;100.00
65800;BME280;52544;48.116;11.660;2024-02-23T08:44:20;93969.28;;;5.24;100.00
65800;BME280;52544;48.116;11.660;2024-02-23T08:46:47;93969.41;;;5.42;100.00
65800;BME280;52544;48.116;11.660;2024-02-23T08:49:13;93976.63;;;5.40;100.00
65800;BME280;52544;48.116;11.660;2024-02-23T08:51:39;93974.97;;;5.49;100.00
65800;BME280;52544;48.116;11.660;2024-02-23T08:54:04;93975.22;;;5.46;100.00
65800;BME280;52544;48.116;11.660;2024-02-23T08:56:31;93988.63;;;5.43;100.00
65800;BME280;52544;48.116;11.660;2024-02-23T08:58:58;94010.56;;;5.42;100.00
65800;BME280;52544;48.116;11.660;2024-02-23T09:01:23;94003.66;;;5.50;100.00
65800;BME280;52544;48.116;11.660;2024-02-23T09:03:48;94013.06;;;5.53;100.00
65800;BME280;52544;48.116;11.660;2024-02-23T09:06:14;94012.66;;;5.48;100.00
65800;BME280;52544;48.116;11.660;2024-02-23T09:08:40;94023.84;;;5.50;100.00
65800;BME280;52544;48.116;11.660;2024-02-23T09:11:06;94029.63;;;5.54;100.00
65800;BME280;52544;48.116;11.660;2024-02-23T09:13:31;94032.53;;;5.50;100.00
65800;BME280;52544;48.116;11.660;2024-02-23T09:15:57;94042.06;;;5.61;100.00
65800;BME280;52544;48.116;11.660;2024-02-23T09:18:22;94054.19;;;5.43;100.00
65800;BME280;52544;48.116;11.660;2024-02-23T09:20:48;94065.81;;;5.50;100.00
65800;BME280;52544;48.116;11.660;2024-02-23T09:23:13;94062.78;;;5.45;100.00
65800;BME280;52544;48.116;11.660;2024-02-23T09:25:39;94052.53;;;5.42;100.00
65800;BME280;52544;48.116;11.660;2024-02-23T09:28:04;94053.09;;;5.45;100.00
65800;BME280;52544;48.116;11.660;2024-02-23T09:30:30;94060.41;;;5.42;100.00
65800;BME280;52544;48.116;11.660;2024-02-23T09:32:55;94066.22;;;5.45;100.00
65800;BME280;52544;48.116;11.660;2024-02-23T09:35:21;94059.59;;;5.41;100.00
65800;BME280;52544;48.116;11.660;2024-02-23T09:37:46;94066.34;;;5.34;100.00
65800;BME280;52544;48.116;11.660;2024-02-23T09:40:12;94056.97;;;5.32;100.00
65800;BME280;52544;48.116;11.660;2024-02-23T09:42:38;94060.28;;;5.34;100.00
65800;BME280;52544;48.116;11.660;2024-02-23T09:45:05;94055.16;;;5.32;100.00
65800;BME280;52544;48.116;11.660;2024-02-23T09:47:31;94064.00;;;5.31;100.00
65800;BME280;52544;48.116;11.660;2024-02-23T09:49:56;94064.13;;;5.30;100.00
65800;BME280;52544;48.116;11.660;2024-02-23T09:52:22;94061.78;;;5.26;100.00
65800;BME280;52544;48.116;11.660;2024-02-23T09:54:48;94062.31;;;5.11;100.00
65800;BME280;52544;48.116;11.660;2024-02-23T09:57:15;94051.97;;;5.19;100.00
65800;BME280;52544;48.116;11.660;2024-02-23T09:59:41;94052.22;;;5.06;100.00
65800;BME280;52544;48.116;11.660;2024-02-23T10:02:15;94048.66;;;5.17;100.00
65800;BME280;52544;48.116;11.660;2024-02-23T10:04:42;94062.16;;;5.12;100.00
65800;BME280;52544;48.116;11.660;2024-02-23T10:07:14;94063.81;;;5.13;100.00
65800;BME280;52544;48.116;11.660;2024-02-23T10:09:40;94064.06;;;4.91;100.00
65800;BME280;52544;48.116;11.660;2024-02-23T10:12:06;94071.59;;;4.84;100.00
65800;BME280;52544;48.116;11.660;2024-02-23T10:14:32;94073.59;;;4.61;100.00
65800;BME280;52544;48.116;11.660;2024-02-23T10:16:57;94075.97;;;4.64;100.00
65800;BME280;52544;48.116;11.660;2024-02-23T10:19:23;94071.16;;;4.69;100.00
65800;BME280;52544;48.116;11.660;2024-02-23T10:21:54;94070.34;;;4.79;100.00
65800;BME280;52544;48.116;11.660;2024-02-23T10:24:19;94070.50;;;4.77;100.00
65800;BME280;52544;48.116;11.660;2024-02-23T10:26:45;94066.09;;;4.87;100.00
65800;BME280;52544;48.116;11.660;2024-02-23T10:29:10;94058.50;;;4.84;100.00
65800;BME280;52544;48.116;11.660;2024-02-23T10:31:36;94054.13;;;4.85;100.00
65800;BME280;52544;48.116;11.660;2024-02-23T10:34:07;94050.63;;;4.84;100.00
65800;BME280;52544;48.116;11.660;2024-02-23T10:36:41;94051.91;;;4.90;100.00
65800;BME280;52544;48.116;11.660;2024-02-23T10:39:08;94052.91;;;4.98;100.00
65800;BME280;52544;48.116;11.660;2024-02-23T10:41:36;94055.53;;;4.98;100.00
65800;BME280;52544;48.116;11.660;2024-02-23T10:44:04;94055.38;;;4.90;100.00
65800;BME280;52544;48.116;11.660;2024-02-23T10:46:31;94066.25;;;4.86;100.00
65800;BME280;52544;48.116;11.660;2024-02-23T10:48:58;94054.28;;;4.93;100.00
65800;BME280;52544;48.116;11.660;2024-02-23T10:51:24;94046.41;;;4.93;100.00
65800;BME280;52544;48.116;11.660;2024-02-23T10:53:52;94043.09;;;4.91;100.00
65800;BME280;52544;48.116;11.660;2024-02-23T10:56:18;94035.63;;;4.86;100.00
65800;BME280;52544;48.116;11.660;2024-02-23T10:58:45;94032.56;;;4.81;100.00
65800;BME280;52544;48.116;11.660;2024-02-23T11:01:11;94030.69;;;4.93;100.00
65800;BME280;52544;48.116;11.660;2024-02-23T11:03:38;94027.09;;;4.94;100.00
65800;BME280;52544;48.116;11.660;2024-02-23T11:06:07;94044.31;;;4.87;100.00
65800;BME280;52544;48.116;11.660;2024-02-23T11:08:33;94048.00;;;4.84;100.00
65800;BME280;52544;48.116;11.660;2024-02-23T11:11:07;94047.19;;;4.84;100.00
65800;BME280;52544;48.116;11.660;2024-02-23T11:13:39;94051.91;;;4.90;100.00
65800;BME280;52544;48.116;11.660;2024-02-23T11:16:06;94050.13;;;4.90;100.00
65800;BME280;52544;48.116;11.660;2024-02-23T11:18:34;94052.44;;;4.84;100.00
65800;BME280;52544;48.116;11.660;2024-02-23T11:21:00;94051.19;;;4.88;100.00
65800;BME280;52544;48.116;11.660;2024-02-23T11:23:27;94062.97;;;5.03;100.00
65800;BME280;52544;48.116;11.660;2024-02-23T11:28:28;94064.72;;;4.83;100.00
65800;BME280;52544;48.116;11.660;2024-02-23T11:30:54;94062.00;;;4.94;100.00
65800;BME280;52544;48.116;11.660;2024-02-23T11:33:26;94060.19;;;4.95;100.00
65800;BME280;52544;48.116;11.660;2024-02-23T11:35:52;94058.97;;;4.99;100.00
65800;BME280;52544;48.116;11.660;2024-02-23T11:38:18;94052.19;;;4.96;100.00
65800;BME280;52544;48.116;11.660;2024-02-23T11:40:47;94044.22;;;4.98;100.00
65800;BME280;52544;48.116;11.660;2024-02-23T11:43:13;94031.31;;;4.75;100.00
65800;BME280;52544;48.116;11.660;2024-02-23T11:45:40;94037.78;;;4.71;100.00
65800;BME280;52544;48.116;11.660;2024-02-23T11:48:09;94040.97;;;4.75;100.00
65800;BME280;52544;48.116;11.660;2024-02-23T11:50:35;94043.34;;;4.88;100.00
65800;BME280;52544;48.116;11.660;2024-02-23T11:53:01;94053.41;;;4.83;100.00
65800;BME280;52544;48.116;11.660;2024-02-23T11:55:26;94052.97;;;4.78;100.00
65800;BME280;52544;48.116;11.660;2024-02-23T11:57:52;94051.31;;;4.76;100.00
65800;BME280;52544;48.116;11.660;2024-02-23T12:00:17;94044.16;;;4.79;100.00
65800;BME280;52544;48.116;11.660;2024-02-23T12:02:44;94040.84;;;4.76;100.00
65800;BME280;52544;48.116;11.660;2024-02-23T12:05:15;94041.94;;;4.74;100.00
65800;BME280;52544;48.116;11.660;2024-02-23T12:07:40;94040.88;;;4.86;100.00
65800;BME280;52544;48.116;11.660;2024-02-23T12:10:09;94044.94;;;4.69;100.00
65800;BME280;52544;48.116;11.660;2024-02-23T12:12:36;94055.41;;;4.60;100.00
65800;BME280;52544;48.116;11.660;2024-02-23T12:15:02;94057.13;;;4.49;100.00
65800;BME280;52544;48.116;11.660;2024-02-23T12:17:27;94056.97;;;4.41;100.00
65800;BME280;52544;48.116;11.660;2024-02-23T12:19:59;94060.06;;;4.25;100.00
65800;BME280;52544;48.116;11.660;2024-02-23T12:22:25;94062.47;;;4.38;100.00
65800;BME280;52544;48.116;11.660;2024-02-23T12:24:50;94059.28;;;4.35;100.00
65800;BME280;52544;48.116;11.660;2024-02-23T12:27:19;94050.09;;;4.50;100.00
65800;BME280;52544;48.116;11.660;2024-02-23T12:29:53;94033.00;;;4.46;100.00
65800;BME280;52544;48.116;11.660;2024-02-23T12:32:20;94030.81;;;4.51;100.00
65800;BME280;52544;48.116;11.660;2024-02-23T12:34:47;94027.28;;;4.62;100.00
65800;BME280;52544;48.116;11.660;2024-02-23T12:37:16;94026.19;;;4.64;100.00
65800;BME280;52544;48.116;11.660;2024-02-23T12:39:42;94012.13;;;4.65;100.00
65800;BME280;52544;48.116;11.660;2024-02-23T12:42:08;94019.44;;;4.71;100.00
65800;BME280;52544;48.116;11.660;2024-02-23T12:44:33;94012.69;;;4.79;100.00
65800;BME280;52544;48.116;11.660;2024-02-23T12:46:59;94010.50;;;4.84;100.00